Time;durP1;ratioP1;P1;durP2;ratioP2;P2;SDS_P1;SDS_P2;PMS_P1;PMS_P2;Temp;Humidity;BMP_temperature;BMP_pressure;BME280_temperature;BME280_humidity;BME280_pressure;Samples;Min_cycle;Max_cycle;Signal;HPM_P1;HPM_P2
2021/06/24 00:02:02;;;;;;;36.40;10.10;;;;;;;23.02;76.23;100657.67;1621079;86;21099;-72
2021/06/24 00:04:29;;;;;;;33.97;9.33;;;;;;;22.98;76.53;100663.58;1625620;85;21387;-72
2021/06/24 00:06:56;;;;;;;31.97;8.60;;;;;;;22.95;76.80;100660.95;1648117;85;21502;-71
2021/06/24 00:09:24;;;;;;;34.80;10.10;;;;;;;22.94;76.78;100658.80;1645802;85;21139;-73
2021/06/24 00:11:51;;;;;;;34.50;9.43;;;;;;;22.92;76.74;100647.98;1644103;85;21145;-71
2021/06/24 00:14:19;;;;;;;34.30;10.33;;;;;;;22.93;76.72;100650.41;1629722;85;22303;-70
2021/06/24 00:16:47;;;;;;;34.83;9.93;;;;;;;22.92;76.76;100645.26;1627415;85;21478;-71
2021/06/24 00:19:14;;;;;;;34.63;9.90;;;;;;;22.89;76.89;100644.00;1631538;85;21090;-72
2021/06/24 00:21:42;;;;;;;37.73;10.07;;;;;;;22.87;76.89;100641.41;1645927;85;21293;-71
2021/06/24 00:24:09;;;;;;;42.57;10.47;;;;;;;22.85;76.79;100641.73;1648990;86;21067;-71
2021/06/24 00:26:35;;;;;;;37.30;10.30;;;;;;;22.83;76.85;100638.54;1648987;85;21114;-71
2021/06/24 00:29:02;;;;;;;35.00;9.70;;;;;;;22.82;77.04;100633.44;1650251;85;20972;-71
2021/06/24 00:31:29;;;;;;;35.73;10.63;;;;;;;22.81;77.21;100636.73;1650158;85;21110;-73
2021/06/24 00:33:56;;;;;;;33.77;9.80;;;;;;;22.79;77.40;100635.48;1646235;85;21091;-71
2021/06/24 00:36:23;;;;;;;32.67;10.00;;;;;;;22.75;78.00;100634.56;1645090;85;21617;-70
2021/06/24 00:38:49;;;;;;;26.33;9.37;;;;;;;22.70;78.64;100635.56;1644023;85;21099;-72
2021/06/24 00:41:16;;;;;;;32.90;9.37;;;;;;;22.62;79.16;100629.66;1644840;85;21087;-71
2021/06/24 00:43:43;;;;;;;33.43;10.30;;;;;;;22.53;79.53;100646.06;1639798;85;21058;-70
2021/06/24 00:46:11;;;;;;;36.93;10.70;;;;;;;22.40;79.83;100644.44;1642791;85;21957;-75
2021/06/24 00:48:38;;;;;;;34.93;9.97;;;;;;;22.36;80.33;100645.67;1658125;85;21116;-71
2021/06/24 00:51:05;;;;;;;40.07;10.30;;;;;;;22.33;80.92;100640.09;1659990;85;21594;-70
2021/06/24 00:53:32;;;;;;;40.13;10.20;;;;;;;22.28;81.21;100645.20;1660820;85;21464;-70
2021/06/24 00:55:59;;;;;;;39.27;10.57;;;;;;;22.24;81.41;100646.43;1648328;85;21010;-70
2021/06/24 00:58:28;;;;;;;43.10;10.23;;;;;;;22.19;81.29;100643.90;1607347;87;21200;-70
2021/06/24 01:00:58;;;;;;;39.83;10.50;;;;;;;22.14;81.04;100646.78;1644176;85;21648;-72
2021/06/24 01:03:24;;;;;;;35.03;10.47;;;;;;;22.08;80.86;100646.77;1615156;86;21115;-71
2021/06/24 01:05:52;;;;;;;41.97;10.97;;;;;;;22.03;80.67;100644.81;1668250;85;21080;-71
2021/06/24 01:08:24;;;;;;;41.27;10.10;;;;;;;21.98;80.53;100647.97;1650637;85;22165;-71
2021/06/24 01:10:50;;;;;;;45.07;11.33;;;;;;;21.94;80.50;100642.94;1660180;85;21105;-71
2021/06/24 01:13:20;;;;;;;35.28;10.23;;;;;;;21.91;80.51;100642.80;1647707;85;21568;-71
2021/06/24 01:15:47;;;;;;;40.17;10.27;;;;;;;21.89;80.55;100643.72;1645135;85;21440;-71
2021/06/24 01:18:14;;;;;;;39.00;9.80;;;;;;;21.86;80.66;100645.73;1652291;85;21602;-71
2021/06/24 01:20:42;;;;;;;34.63;10.03;;;;;;;21.83;80.72;100637.67;1655222;85;21549;-70
2021/06/24 01:23:10;;;;;;;37.53;10.70;;;;;;;21.83;80.71;100642.31;1648983;85;21821;-70
2021/06/24 01:25:38;;;;;;;36.63;10.87;;;;;;;21.80;80.63;100645.12;1644317;85;21110;-70
2021/06/24 01:28:08;;;;;;;44.40;10.60;;;;;;;21.77;80.53;100642.50;1652823;85;21077;-71
2021/06/24 01:30:37;;;;;;;;;;;;;;;21.73;80.24;100642.93;1661914;85;21057;-71
2021/06/24 01:33:05;;;;;;;46.03;11.43;;;;;;;21.72;79.85;100640.55;1644578;85;21031;-71
2021/06/24 01:35:32;;;;;;;53.90;10.87;;;;;;;21.68;79.41;100650.47;1646254;85;21960;-71
2021/06/24 01:38:06;;;;;;;39.67;10.40;;;;;;;21.67;79.05;100650.25;1650159;85;21546;-71
2021/06/24 01:40:34;;;;;;;42.50;10.90;;;;;;;21.63;78.83;100647.96;1663503;85;21052;-69
2021/06/24 01:43:01;;;;;;;42.10;10.67;;;;;;;21.63;78.72;100648.75;1659847;85;21033;-69
2021/06/24 01:45:28;;;;;;;41.03;11.03;;;;;;;21.61;78.66;100653.71;1643634;85;21625;-70
2021/06/24 01:47:55;;;;;;;37.83;10.00;;;;;;;21.59;78.67;100649.75;1647378;85;21967;-70
2021/06/24 01:50:22;;;;;;;38.73;10.03;;;;;;;21.58;78.67;100650.86;1652182;85;21095;-70
2021/06/24 01:52:50;;;;;;;37.20;9.80;;;;;;;21.57;78.74;100658.22;1649703;85;21158;-70
2021/06/24 01:55:31;;;;;;;42.03;10.40;;;;;;;21.56;78.67;100653.13;1643813;85;21060;-69
2021/06/24 01:57:51;;;;;;;37.00;10.77;;;;;;;21.56;78.52;100658.56;1586388;87;21094;-70
2021/06/24 02:00:21;;;;;;;41.17;9.90;;;;;;;21.54;78.34;100661.59;1621816;86;21896;-69
2021/06/24 02:02:47;;;;;;;39.70;10.10;;;;;;;21.54;78.22;100658.30;1601504;87;21119;-70
2021/06/24 02:05:16;;;;;;;37.90;9.73;;;;;;;21.56;78.06;100665.36;1619821;88;21574;-71
2021/06/24 02:07:43;;;;;;;36.83;9.90;;;;;;;21.54;77.89;100662.38;1650293;85;21502;-69
2021/06/24 02:10:26;;;;;;;42.43;9.33;;;;;;;21.52;77.71;100659.22;1649377;85;21068;-69
2021/06/24 02:12:57;;;;;;;40.10;10.43;;;;;;;21.52;77.47;100657.06;1651000;85;21905;-72
2021/06/24 02:15:26;;;;;;;40.13;10.33;;;;;;;21.52;77.40;100659.22;1620624;88;21158;-70
2021/06/24 02:17:53;;;;;;;33.13;10.17;;;;;;;21.53;77.45;100658.65;1637281;85;21104;-72
2021/06/24 02:20:22;;;;;;;45.03;10.30;;;;;;;21.54;77.62;100656.95;1652626;85;21076;-71
2021/06/24 02:22:51;;;;;;;49.00;11.83;;;;;;;21.50;77.74;100654.66;1643261;85;21035;-70
2021/06/24 02:25:19;;;;;;;37.70;10.97;;;;;;;21.40;77.86;100655.60;1646921;85;21151;-69
2021/06/24 02:28:00;;;;;;;46.20;11.10;;;;;;;21.31;78.04;100656.39;1648587;85;21214;-70
2021/06/24 02:30:41;;;;;;;43.63;10.60;;;;;;;21.29;78.25;100652.44;1645128;85;21171;-69
2021/06/24 02:33:09;;;;;;;44.00;12.03;;;;;;;21.25;78.47;100648.19;1646792;85;21071;-71
2021/06/24 02:35:37;;;;;;;40.27;10.50;;;;;;;21.25;78.79;100649.55;1667877;85;21071;-70
2021/06/24 02:38:08;;;;;;;47.33;11.33;;;;;;;21.28;79.00;100648.10;1646279;85;21352;-71
2021/06/24 02:40:40;;;;;;;42.90;11.33;;;;;;;21.33;79.09;100645.78;1663734;85;21043;-70
2021/06/24 02:43:08;;;;;;;43.80;10.40;;;;;;;21.38;79.04;100645.61;1655684;85;21506;-71
2021/06/24 02:45:41;;;;;;;43.73;11.70;;;;;;;21.44;78.91;100653.25;1646407;85;21542;-71
2021/06/24 02:48:10;;;;;;;53.63;11.47;;;;;;;21.50;78.76;100653.87;1653599;85;21554;-70
2021/06/24 02:50:37;;;;;;;40.10;10.60;;;;;;;21.56;78.55;100653.13;1655116;85;21000;-71
2021/06/24 02:53:07;;;;;;;53.13;11.27;;;;;;;21.61;78.29;100657.79;1661152;85;21093;-70
2021/06/24 02:55:33;;;;;;;49.50;12.13;;;;;;;21.65;78.03;100656.03;1644915;85;21256;-72
2021/06/24 02:58:01;;;;;;;47.03;11.07;;;;;;;21.68;77.88;100650.47;1650582;85;21143;-72
2021/06/24 03:00:47;;;;;;;42.67;11.67;;;;;;;21.70;78.11;100653.10;1654471;85;21066;-71
2021/06/24 03:03:16;;;;;;;44.03;10.63;;;;;;;21.73;78.41;100656.52;1645135;85;21174;-72
2021/06/24 03:05:47;;;;;;;41.58;10.63;;;;;;;21.77;78.53;100664.81;1645334;85;26063;-70
2021/06/24 03:08:15;;;;;;;40.07;10.90;;;;;;;21.78;78.28;100669.94;1652235;85;21574;-69
2021/06/24 03:10:44;;;;;;;46.73;10.97;;;;;;;21.76;78.10;100664.02;1638314;85;21057;-70
2021/06/24 03:13:11;;;;;;;41.50;10.30;;;;;;;21.80;77.83;100666.88;1647654;85;21123;-69
2021/06/24 03:15:38;;;;;;;39.47;10.07;;;;;;;21.86;77.47;100665.56;1644413;85;22242;-69
2021/06/24 03:18:06;;;;;;;47.73;11.27;;;;;;;21.91;77.24;100665.92;1647593;85;21055;-70
2021/06/24 03:20:33;;;;;;;37.93;10.70;;;;;;;21.95;76.94;100658.71;1649151;85;21080;-71
2021/06/24 03:23:00;;;;;;;31.27;9.67;;;;;;;21.99;76.64;100653.63;1643809;85;21075;-70
2021/06/24 03:25:27;;;;;;;44.53;10.57;;;;;;;22.05;76.48;100661.03;1647226;85;21076;-70
2021/06/24 03:27:54;;;;;;;46.83;10.63;;;;;;;22.10;76.28;100658.10;1647207;85;21323;-70
2021/06/24 03:30:41;;;;;;;48.40;12.20;;;;;;;22.16;76.04;100657.37;1651825;85;21116;-69
2021/06/24 03:33:09;;;;;;;41.77;10.13;;;;;;;22.27;75.60;100650.95;1647131;85;21087;-69
2021/06/24 03:35:36;;;;;;;42.20;10.43;;;;;;;22.35;75.24;100654.97;1645974;85;21597;-70
2021/06/24 03:38:03;;;;;;;35.80;10.20;;;;;;;22.46;74.85;100653.98;1651205;85;21091;-70
2021/06/24 03:40:30;;;;;;;38.77;9.60;;;;;;;22.55;74.56;100656.06;1641459;85;21143;-70
2021/06/24 03:42:59;;;;;;;39.77;10.00;;;;;;;22.63;74.31;100655.17;1648480;85;21130;-70
2021/06/24 03:45:27;;;;;;;45.00;10.77;;;;;;;22.73;74.06;100655.31;1649331;85;21085;-69
2021/06/24 03:47:54;;;;;;;50.03;11.23;;;;;;;22.84;73.70;100650.25;1645015;85;21043;-69
2021/06/24 03:50:21;;;;;;;50.77;10.90;;;;;;;22.96;73.12;100647.56;1646870;85;21126;-69
2021/06/24 03:52:48;;;;;;;37.97;9.53;;;;;;;23.04;72.50;100648.61;1646395;85;21150;-69
2021/06/24 03:55:19;;;;;;;43.10;10.47;;;;;;;23.12;72.13;100653.14;1646564;85;21501;-69
2021/06/24 03:57:47;;;;;;;41.93;10.73;;;;;;;23.18;71.69;100654.52;1646777;85;21159;-70
2021/06/24 04:00:17;;;;;;;44.20;10.60;;;;;;;23.25;70.89;100654.75;1649537;85;21110;-69
2021/06/24 04:02:46;;;;;;;45.92;11.18;;;;;;;23.28;70.52;100654.06;1653609;85;28073;-71
2021/06/24 04:05:16;;;;;;;42.57;10.13;;;;;;;23.34;70.49;100647.83;1646377;85;21739;-70
2021/06/24 04:07:45;;;;;;;35.63;9.17;;;;;;;23.38;70.47;100654.97;1656252;85;21091;-69
2021/06/24 04:10:12;;;;;;;35.10;9.20;;;;;;;23.43;70.27;100656.69;1649736;85;21051;-70
2021/06/24 04:12:41;;;;;;;38.67;10.40;;;;;;;23.47;70.34;100657.59;1663180;85;21903;-70
2021/06/24 04:15:19;;;;;;;34.93;9.13;;;;;;;23.53;70.30;100652.72;1643299;85;21494;-71
2021/06/24 04:17:45;;;;;;;42.30;9.33;;;;;;;23.61;70.06;100654.52;1653487;85;21065;-71
2021/06/24 04:20:13;;;;;;;33.37;9.17;;;;;;;23.68;70.20;100656.12;1645109;85;21007;-71
2021/06/24 04:22:41;;;;;;;44.80;10.07;;;;;;;23.77;70.10;100651.91;1614875;86;21080;-71
2021/06/24 04:25:16;;;;;;;35.57;9.43;;;;;;;23.86;69.95;100654.73;1610171;86;21028;-71
2021/06/24 04:27:43;;;;;;;34.87;9.10;;;;;;;23.95;69.95;100658.67;1600572;87;21059;-70
2021/06/24 04:30:11;;;;;;;34.97;9.77;;;;;;;24.06;69.73;100661.16;1634921;86;21167;-71
2021/06/24 04:32:40;;;;;;;31.13;7.90;;;;;;;24.20;68.72;100664.08;1651168;85;21092;-72
2021/06/24 04:35:09;;;;;;;33.83;8.80;;;;;;;24.34;67.47;100659.02;1646251;85;21506;-72
2021/06/24 04:37:37;;;;;;;28.97;7.20;;;;;;;24.49;65.05;100668.44;1630686;85;21534;-72
2021/06/24 04:40:05;;;;;;;25.50;7.03;;;;;;;24.64;62.19;100663.56;1644057;85;21510;-71
2021/06/24 04:42:34;;;;;;;31.43;7.83;;;;;;;24.80;61.42;100658.13;1638385;85;21598;-72
2021/06/24 04:45:06;;;;;;;26.02;7.28;;;;;;;24.94;60.58;100659.88;1645913;85;21051;-72
2021/06/24 04:47:35;;;;;;;29.13;7.23;;;;;;;25.09;59.88;100658.28;1650538;85;21236;-71
2021/06/24 04:50:04;;;;;;;31.87;7.60;;;;;;;25.25;59.24;100655.58;1645360;85;21603;-72
2021/06/24 04:52:35;;;;;;;28.10;7.33;;;;;;;25.37;59.29;100657.41;1638307;86;21145;-71
2021/06/24 04:55:06;;;;;;;28.23;6.90;;;;;;;25.50;58.19;100650.13;1651641;85;21222;-71
2021/06/24 04:57:33;;;;;;;33.57;7.90;;;;;;;25.59;57.32;100643.08;1646899;85;21601;-71
2021/06/24 05:00:09;;;;;;;29.90;7.60;;;;;;;25.69;57.13;100642.52;1619471;85;21074;-70
2021/06/24 05:02:38;;;;;;;25.10;7.30;;;;;;;25.83;57.20;100647.56;1637880;85;21107;-71
2021/06/24 05:05:10;;;;;;;32.07;7.20;;;;;;;25.98;56.87;100641.02;1639279;85;21118;-71
2021/06/24 05:07:38;;;;;;;24.30;7.50;;;;;;;26.17;56.95;100641.02;1658745;85;21983;-71
2021/06/24 05:10:06;;;;;;;25.73;6.83;;;;;;;26.37;56.16;100634.38;1646947;85;22199;-71
2021/06/24 05:12:34;;;;;;;30.57;8.43;;;;;;;26.56;54.96;100630.84;1646418;85;21646;-70
2021/06/24 05:15:02;;;;;;;20.33;6.30;;;;;;;26.73;54.57;100640.54;1647013;85;21063;-70
2021/06/24 05:17:29;;;;;;;30.00;7.20;;;;;;;26.89;53.45;100637.11;1645837;85;21711;-70
2021/06/24 05:19:58;;;;;;;27.00;7.20;;;;;;;27.01;53.09;100635.31;1645859;85;21180;-70
2021/06/24 05:22:27;;;;;;;24.17;6.43;;;;;;;27.12;53.12;100629.45;1645983;85;21066;-71
2021/06/24 05:24:55;;;;;;;28.83;7.00;;;;;;;27.24;52.48;100628.47;1649888;85;21084;-70
2021/06/24 05:27:22;;;;;;;22.97;5.63;;;;;;;27.38;52.69;100636.93;1643963;85;21092;-71
2021/06/24 05:29:49;;;;;;;27.20;6.77;;;;;;;27.52;51.65;100636.34;1653576;85;21075;-70
2021/06/24 05:32:16;;;;;;;22.27;6.20;;;;;;;27.66;51.56;100637.12;1654837;85;21354;-70
2021/06/24 05:34:43;;;;;;;18.73;5.93;;;;;;;27.79;51.60;100642.03;1649020;85;21618;-70
2021/06/24 05:37:10;;;;;;;20.33;5.63;;;;;;;27.92;50.37;100641.22;1646716;85;21072;-70
2021/06/24 05:39:37;;;;;;;25.83;6.47;;;;;;;27.99;49.18;100646.01;1651586;85;21120;-71
2021/06/24 05:42:06;;;;;;;23.37;6.67;;;;;;;27.94;48.58;100644.98;1640204;85;21079;-70
2021/06/24 05:44:33;;;;;;;26.43;6.40;;;;;;;27.86;48.57;100658.39;1647096;85;21139;-71
2021/06/24 05:47:00;;;;;;;23.17;6.40;;;;;;;27.82;49.25;100660.50;1657256;85;21139;-69
2021/06/24 05:49:28;;;;;;;26.30;7.20;;;;;;;27.86;49.42;100654.27;1651977;85;21067;-71
2021/06/24 05:51:55;;;;;;;31.93;7.30;;;;;;;27.91;49.38;100659.45;1646973;85;21508;-70
2021/06/24 05:54:22;;;;;;;21.93;5.37;;;;;;;27.95;49.39;100657.53;1655657;85;21036;-71
2021/06/24 05:56:49;;;;;;;24.80;6.37;;;;;;;27.96;48.71;100655.78;1654789;85;21582;-71
2021/06/24 05:59:16;;;;;;;21.83;6.40;;;;;;;27.99;48.75;100652.28;1649920;85;21055;-73
2021/06/24 06:01:47;;;;;;;22.63;6.23;;;;;;;28.04;48.60;100660.20;1654427;85;21618;-70
2021/06/24 06:04:12;;;;;;;19.90;5.70;;;;;;;28.12;48.35;100653.42;1646157;85;22060;-70
2021/06/24 06:06:39;;;;;;;23.47;5.40;;;;;;;28.23;48.51;100657.89;1647249;85;21075;-72
2021/06/24 06:09:06;;;;;;;24.23;5.63;;;;;;;28.33;48.17;100655.62;1648291;85;21847;-70
2021/06/24 06:11:33;;;;;;;23.73;6.57;;;;;;;28.42;48.56;100655.56;1657459;85;21059;-71
2021/06/24 06:14:01;;;;;;;21.27;5.90;;;;;;;28.54;47.85;100655.89;1649450;85;21036;-69
2021/06/24 06:16:27;;;;;;;17.77;5.30;;;;;;;28.64;48.27;100648.34;1645947;85;21119;-71
2021/06/24 06:18:56;;;;;;;26.70;6.83;;;;;;;28.73;48.40;100651.58;1648003;85;21158;-71
2021/06/24 06:21:23;;;;;;;22.73;6.30;;;;;;;28.75;47.61;100645.69;1652740;85;21162;-71
2021/06/24 06:23:50;;;;;;;26.20;6.60;;;;;;;28.80;47.51;100648.69;1645625;85;21424;-70
2021/06/24 06:26:17;;;;;;;21.60;5.90;;;;;;;28.82;48.01;100646.34;1650655;85;21160;-71
2021/06/24 06:28:44;;;;;;;21.10;5.83;;;;;;;28.84;47.75;100649.51;1622421;85;21467;-70
2021/06/24 06:31:11;;;;;;;19.03;5.73;;;;;;;28.87;48.21;100639.91;1650892;85;21074;-71
2021/06/24 06:33:38;;;;;;;21.33;6.07;;;;;;;28.89;47.80;100638.96;1646289;85;21141;-70
2021/06/24 06:36:05;;;;;;;23.10;5.97;;;;;;;28.92;47.10;100637.39;1652798;85;21721;-70
2021/06/24 06:38:31;;;;;;;20.70;5.90;;;;;;;28.93;47.40;100637.62;1647509;85;21071;-70
2021/06/24 06:40:58;;;;;;;32.43;7.30;;;;;;;28.96;46.39;100636.86;1649871;85;21035;-71
2021/06/24 06:43:26;;;;;;;21.87;6.12;;;;;;;29.08;47.75;100636.57;1652729;85;21139;-71
2021/06/24 06:45:53;;;;;;;19.43;5.40;;;;;;;29.28;46.73;100633.57;1670253;85;21152;-71
2021/06/24 06:48:19;;;;;;;23.83;6.22;;;;;;;29.47;46.45;100626.43;1646969;85;21059;-71
2021/06/24 06:50:47;;;;;;;28.32;7.28;;;;;;;29.63;46.49;100628.32;1652552;85;21613;-69
2021/06/24 06:53:14;;;;;;;30.40;6.60;;;;;;;29.83;46.25;100633.53;1640766;85;21142;-71
2021/06/24 06:55:41;;;;;;;34.45;7.00;;;;;;;29.99;45.50;100634.00;1667460;85;21078;-70
2021/06/24 06:58:08;;;;;;;16.65;4.85;;;;;;;30.16;46.17;100631.10;1644542;85;21204;-71
2021/06/24 07:00:35;;;;;;;20.75;5.03;;;;;;;30.34;45.18;100631.98;1650607;85;21170;-71
2021/06/24 07:03:02;;;;;;;19.23;5.37;;;;;;;30.46;44.64;100623.92;1651453;85;21075;-71
2021/06/24 07:05:30;;;;;;;15.53;4.85;;;;;;;30.57;44.62;100624.73;1647295;85;21063;-71
2021/06/24 07:07:57;;;;;;;17.42;5.58;;;;;;;30.76;44.34;100622.20;1647783;85;21035;-70
2021/06/24 07:10:24;;;;;;;14.58;5.37;;;;;;;30.91;42.98;100616.71;1646556;85;21118;-71
2021/06/24 07:12:51;;;;;;;19.42;5.17;;;;;;;31.05;42.69;100614.72;1648397;85;21088;-71
2021/06/24 07:15:17;;;;;;;23.15;4.78;;;;;;;31.22;42.69;100618.64;1645483;85;21112;-71
2021/06/24 07:17:44;;;;;;;20.55;4.85;;;;;;;31.30;41.24;100609.77;1646912;85;21622;-72
2021/06/24 07:20:13;;;;;;;17.80;4.45;;;;;;;31.35;42.17;100616.28;1646288;85;21526;-70
2021/06/24 07:22:39;;;;;;;29.98;6.33;;;;;;;31.45;41.63;100611.33;1652050;85;21169;-71
2021/06/24 07:25:08;;;;;;;17.32;5.33;;;;;;;31.49;41.29;100616.27;1652910;85;21033;-71
2021/06/24 07:27:35;;;;;;;17.70;4.97;;;;;;;31.56;41.51;100611.89;1674580;85;21538;-71
2021/06/24 07:30:04;;;;;;;20.92;4.87;;;;;;;31.60;41.89;100605.78;1657935;85;21079;-71
2021/06/24 07:32:31;;;;;;;15.32;4.00;;;;;;;31.74;41.84;100610.64;1649007;85;21107;-71
2021/06/24 07:34:58;;;;;;;15.60;4.78;;;;;;;31.84;40.36;100615.16;1647247;85;21891;-70
2021/06/24 07:37:24;;;;;;;17.98;4.40;;;;;;;31.93;39.38;100621.84;1647866;85;21060;-72
2021/06/24 07:39:52;;;;;;;20.45;4.67;;;;;;;32.09;41.02;100621.98;1648402;85;21054;-69
2021/06/24 07:42:19;;;;;;;17.02;4.20;;;;;;;32.23;41.42;100621.30;1648204;85;20956;-71
2021/06/24 07:44:48;;;;;;;18.42;4.30;;;;;;;32.37;40.09;100621.02;1646317;86;21063;-70
2021/06/24 07:47:14;;;;;;;15.70;3.90;;;;;;;32.45;39.04;100623.37;1653532;85;21755;-71
2021/06/24 07:49:42;;;;;;;19.70;4.50;;;;;;;32.52;37.22;100630.05;1666034;85;21530;-70
2021/06/24 07:52:09;;;;;;;14.98;4.25;;;;;;;32.41;38.77;100628.12;1651592;85;21057;-71
2021/06/24 07:54:36;;;;;;;13.22;4.00;;;;;;;32.41;38.77;100628.12;1644749;85;21048;-71
2021/06/24 07:57:05;;;;;;;15.18;4.00;;;;;;;32.43;38.56;100631.88;1646392;85;21505;-71
2021/06/24 07:59:31;;;;;;;15.45;4.08;;;;;;;32.52;38.21;100635.58;1645028;85;21763;-70
2021/06/24 08:01:58;;;;;;;19.90;4.05;;;;;;;32.52;38.21;100635.58;1649852;85;21175;-71
2021/06/24 08:04:24;;;;;;;11.53;4.00;;;;;;;32.54;38.10;100634.56;1647820;85;21058;-71
2021/06/24 08:06:52;;;;;;;14.10;3.90;;;;;;;32.55;37.99;100635.55;1654574;85;21045;-70
2021/06/24 08:09:19;;;;;;;15.03;3.85;;;;;;;32.56;40.40;100634.35;1649749;85;21090;-70
2021/06/24 08:11:46;;;;;;;13.83;4.05;;;;;;;32.55;39.84;100636.94;1647713;85;21125;-70
2021/06/24 08:14:12;;;;;;;17.70;3.72;;;;;;;32.55;40.50;100641.08;1658681;85;21073;-70
2021/06/24 08:16:40;;;;;;;16.48;4.60;;;;;;;32.56;39.94;100639.09;1647464;85;21019;-70
2021/06/24 08:19:07;;;;;;;14.03;4.20;;;;;;;32.53;39.22;100637.92;1654189;85;21077;-70
2021/06/24 08:21:36;;;;;;;20.55;4.40;;;;;;;32.56;39.47;100643.25;1645567;85;21652;-71
2021/06/24 08:24:04;;;;;;;15.98;4.15;;;;;;;32.57;38.92;100638.68;1650779;85;21496;-71
2021/06/24 08:26:31;;;;;;;11.90;3.83;;;;;;;32.63;39.50;100634.90;1643005;85;21070;-71
2021/06/24 08:28:58;;;;;;;16.05;4.20;;;;;;;32.69;39.56;100641.58;1650574;85;21121;-70
2021/06/24 08:31:25;;;;;;;14.80;4.28;;;;;;;32.71;38.62;100637.81;1647460;86;21181;-70
2021/06/24 08:33:52;;;;;;;13.62;3.67;;;;;;;32.77;38.22;100642.30;1652301;85;21119;-70
2021/06/24 08:36:19;;;;;;;15.48;3.87;;;;;;;32.83;37.61;100634.54;1647285;85;22011;-71
2021/06/24 08:38:46;;;;;;;12.60;3.70;;;;;;;32.93;37.90;100635.64;1647453;85;21566;-72
2021/06/24 08:41:15;;;;;;;14.63;3.95;;;;;;;33.01;37.25;100641.95;1645135;85;21070;-71
2021/06/24 08:43:41;;;;;;;13.85;3.70;;;;;;;33.11;37.71;100636.31;1648185;85;21091;-72
2021/06/24 08:46:08;;;;;;;10.15;3.60;;;;;;;33.21;38.22;100634.64;1663312;85;21113;-71
2021/06/24 08:48:37;;;;;;;10.18;3.10;;;;;;;33.28;37.10;100631.02;1662163;85;21176;-71
2021/06/24 08:51:06;;;;;;;14.47;3.52;;;;;;;33.36;36.59;100632.50;1647413;87;21437;-70
2021/06/24 08:53:34;;;;;;;10.88;3.67;;;;;;;33.45;36.67;100630.64;1648601;85;21067;-70
2021/06/24 08:56:01;;;;;;;14.83;3.90;;;;;;;33.61;36.48;100635.05;1651983;85;21047;-71
2021/06/24 08:58:27;;;;;;;13.40;3.90;;;;;;;33.79;36.43;100636.20;1651666;85;21021;-71
2021/06/24 09:00:54;;;;;;;13.05;3.90;;;;;;;33.97;36.66;100638.17;1661020;85;21968;-70
2021/06/24 09:03:27;;;;;;;13.55;3.92;;;;;;;34.16;36.66;100635.98;1635378;85;21012;-71
2021/06/24 09:06:08;;;;;;;14.13;3.65;;;;;;;34.29;36.16;100633.61;1649258;85;21115;-70
2021/06/24 09:08:43;;;;;;;17.25;4.67;;;;;;;34.32;36.18;100629.20;1653851;85;21154;-71
2021/06/24 09:11:23;;;;;;;14.47;3.83;;;;;;;34.36;36.18;100633.33;1639820;85;21008;-70
2021/06/24 09:14:12;;;;;;;13.70;4.15;;;;;;;34.41;35.35;100636.39;1651148;85;21293;-70
2021/06/24 09:16:41;;;;;;;14.65;3.60;;;;;;;34.42;35.73;100635.21;1646623;85;21582;-70
2021/06/24 09:19:24;;;;;;;13.10;3.58;;;;;;;34.41;35.86;100625.91;1658400;85;21032;-71
2021/06/24 09:22:03;;;;;;;15.43;4.08;;;;;;;34.40;36.00;100630.67;1675917;85;21130;-71
2021/06/24 09:24:34;;;;;;;14.47;3.65;;;;;;;34.41;35.97;100624.52;1649187;85;21055;-70
2021/06/24 09:27:27;;;;;;;15.58;3.77;;;;;;;34.46;36.03;100619.91;1647770;85;21107;-70
2021/06/24 09:30:07;;;;;;;12.65;3.17;;;;;;;34.50;35.37;100616.47;1662409;85;21442;-70
2021/06/24 09:32:43;;;;;;;10.98;3.02;;;;;;;34.47;35.03;100625.02;1672062;85;21200;-71
2021/06/24 09:35:27;;;;;;;10.50;2.87;;;;;;;34.40;34.26;100620.97;1662710;84;21150;-70
2021/06/24 09:38:10;;;;;;;9.88;2.83;;;;;;;34.40;33.85;100620.19;1662152;84;21055;-70
2021/06/24 09:40:55;;;;;;;11.25;3.30;;;;;;;34.51;34.43;100613.86;1665074;84;21208;-70
2021/06/24 09:43:31;;;;;;;13.75;3.47;;;;;;;34.63;34.48;100610.54;1654452;85;21111;-70
2021/06/24 09:46:20;;;;;;;11.95;2.85;;;;;;;34.80;33.87;100615.61;1668569;84;21125;-71
2021/06/24 09:48:59;;;;;;;8.78;3.12;;;;;;;34.97;34.02;100606.80;1645004;85;21633;-68
2021/06/24 09:51:34;;;;;;;12.55;3.37;;;;;;;35.09;33.75;100608.22;1621403;88;21095;-71
2021/06/24 09:54:10;;;;;;;18.62;5.08;;;;;;;35.13;33.75;100606.15;1645053;85;21143;-71
2021/06/24 09:56:49;;;;;;;11.12;3.10;;;;;;;35.17;34.05;100602.70;1642408;85;21158;-69
2021/06/24 09:59:18;;;;;;;11.38;3.27;;;;;;;35.17;33.48;100601.31;1647047;85;21069;-71
2021/06/24 10:01:48;;;;;;;11.00;3.25;;;;;;;35.14;33.86;100607.10;1683633;85;21072;-70
2021/06/24 10:04:22;;;;;;;8.88;2.52;;;;;;;35.10;32.12;100599.45;1650088;85;21112;-70
2021/06/24 10:06:53;;;;;;;14.20;3.83;;;;;;;34.97;33.01;100604.80;1645392;85;21139;-71
2021/06/24 10:09:21;;;;;;;;;;;;;;;34.82;33.16;100601.33;1647940;85;21409;-70
2021/06/24 10:11:48;;;;;;;15.15;3.40;;;;;;;34.74;31.60;100600.04;1647929;85;20194;-71
2021/06/24 10:14:15;;;;;;;12.40;3.20;;;;;;;34.67;32.37;100593.23;1646614;85;21207;-70
2021/06/24 10:16:44;;;;;;;8.45;2.90;;;;;;;34.60;31.87;100598.90;1648777;85;21067;-70
2021/06/24 10:19:11;;;;;;;10.63;3.17;;;;;;;34.56;32.05;100594.62;1648046;85;21221;-69
2021/06/24 10:21:37;;;;;;;12.18;3.35;;;;;;;34.45;32.51;100592.78;1671034;85;21029;-70
2021/06/24 10:24:12;;;;;;;10.80;3.10;;;;;;;34.29;33.09;100592.63;1649432;85;21092;-71
2021/06/24 10:26:42;;;;;;;12.85;3.72;;;;;;;34.15;33.49;100588.05;1651543;85;21055;-70
2021/06/24 10:29:22;;;;;;;11.85;3.60;;;;;;;34.09;33.65;100589.72;1645276;85;21071;-70
2021/06/24 10:31:53;;;;;;;10.95;2.90;;;;;;;34.12;34.07;100593.05;1644196;85;21135;-70
2021/06/24 10:34:20;;;;;;;6.37;2.50;;;;;;;34.26;33.46;100585.92;1643552;85;21610;-69
2021/06/24 10:37:12;;;;;;;8.43;2.70;;;;;;;34.39;33.21;100580.59;1654335;85;21076;-70
2021/06/24 10:39:40;;;;;;;9.03;2.92;;;;;;;34.56;33.43;100581.53;1642136;85;21094;-70
2021/06/24 10:42:14;;;;;;;10.18;3.33;;;;;;;34.77;32.38;100578.39;1642923;85;21077;-70
2021/06/24 10:44:51;;;;;;;8.90;3.00;;;;;;;34.94;33.21;100583.44;1603117;87;21095;-69
2021/06/24 10:47:40;;;;;;;10.50;3.50;;;;;;;35.05;32.33;100577.75;1582347;89;21205;-70
2021/06/24 10:50:32;;;;;;;10.30;2.92;;;;;;;35.11;31.50;100576.05;1577521;88;21118;-69
2021/06/24 10:53:06;;;;;;;14.28;3.47;;;;;;;35.09;31.55;100577.68;1634864;85;21098;-71
2021/06/24 10:55:40;;;;;;;10.53;3.00;;;;;;;35.05;32.35;100573.58;1642336;85;22396;-69
2021/06/24 10:58:26;;;;;;;9.63;3.40;;;;;;;35.07;32.30;100568.38;1655550;85;21331;-70
2021/06/24 11:00:57;;;;;;;12.80;3.33;;;;;;;35.06;33.20;100567.42;1654251;85;21032;-71
2021/06/24 11:03:34;;;;;;;10.80;3.30;;;;;;;35.07;31.46;100563.42;1624569;87;21574;-70
2021/06/24 11:06:27;;;;;;;13.70;3.62;;;;;;;35.04;31.85;100554.56;1650677;84;21098;-70
2021/06/24 11:09:12;;;;;;;11.33;3.45;;;;;;;34.94;32.88;100559.84;1662533;84;21537;-69
2021/06/24 11:11:45;;;;;;;12.03;3.83;;;;;;;34.89;33.00;100555.41;1678213;84;21107;-70
2021/06/24 11:14:15;;;;;;;;;;;;;;;34.88;33.32;100547.70;1665889;84;21034;-69
2021/06/24 11:16:43;;;;;;;16.93;4.00;;;;;;;34.89;34.01;100547.87;1656433;85;20208;-70
2021/06/24 11:19:14;;;;;;;12.25;3.22;;;;;;;34.97;33.67;100551.28;1653464;85;20984;-72
2021/06/24 11:21:48;;;;;;;10.30;3.47;;;;;;;35.01;33.48;100538.12;1657116;85;21650;-71
2021/06/24 11:24:18;;;;;;;12.50;3.83;;;;;;;35.01;33.48;100538.12;1641307;85;21139;-70
2021/06/24 11:26:49;;;;;;;12.00;4.15;;;;;;;34.95;33.61;100546.78;1650107;85;21156;-71
2021/06/24 11:29:41;;;;;;;12.93;3.40;;;;;;;34.90;34.03;100537.55;1644978;85;21080;-71